createdAt,value
2023-05-14T00:01:53.885Z,44.64
2023-05-14T00:04:39.725Z,44.17
2023-05-14T00:07:30.605Z,44.73
2023-05-14T00:10:15.589Z,44.18
2023-05-14T00:13:01.106Z,44.34
2023-05-14T00:15:46.019Z,44.55
2023-05-14T00:18:31.272Z,44.09
2023-05-14T00:21:17.116Z,44.44
2023-05-14T00:24:02.221Z,44.50
2023-05-14T00:26:47.322Z,44.42
2023-05-14T00:29:32.441Z,44.12
2023-05-14T00:32:17.540Z,43.90
2023-05-14T00:35:05.868Z,44.01
2023-05-14T00:37:50.695Z,43.84
2023-05-14T00:40:36.143Z,44.04
2023-05-14T00:43:22.606Z,44.24
2023-05-14T00:46:08.089Z,44.31
2023-05-14T00:48:53.817Z,43.91
2023-05-14T00:51:39.859Z,44.22
2023-05-14T00:54:25.198Z,44.30
2023-05-14T00:57:10.878Z,43.85
2023-05-14T00:59:56.265Z,43.87
2023-05-14T01:02:41.548Z,44.23
2023-05-14T01:05:34.242Z,43.93
2023-05-14T01:08:28.482Z,43.77
2023-05-14T01:11:24.158Z,43.94
2023-05-14T01:14:18.021Z,43.83
2023-05-14T01:17:06.356Z,44.09
2023-05-14T01:19:52.283Z,43.85
2023-05-14T01:22:37.856Z,44.17
2023-05-14T01:25:22.808Z,43.79
2023-05-14T01:28:11.165Z,44.06
2023-05-14T01:31:06.517Z,44.10
2023-05-14T01:33:52.430Z,43.86
2023-05-14T01:36:38.985Z,43.82
2023-05-14T01:39:25.739Z,43.57
2023-05-14T01:42:11.229Z,43.72
2023-05-14T01:44:57.406Z,43.92
2023-05-14T01:47:42.511Z,44.16
2023-05-14T01:50:27.815Z,43.64
2023-05-14T01:53:13.499Z,43.56
2023-05-14T01:55:58.640Z,43.45
2023-05-14T01:58:43.856Z,44.09
2023-05-14T02:01:29.747Z,43.93
2023-05-14T02:04:18.046Z,43.87
2023-05-14T02:07:03.369Z,43.90
2023-05-14T02:09:48.555Z,44.03
2023-05-14T02:12:33.856Z,43.71
2023-05-14T02:15:18.862Z,43.95
2023-05-14T02:18:04.303Z,43.56
2023-05-14T02:20:49.411Z,43.97
2023-05-14T02:23:41.596Z,43.53
2023-05-14T02:26:28.032Z,43.60
2023-05-14T02:29:13.608Z,43.86
2023-05-14T02:31:58.760Z,43.86
2023-05-14T02:34:44.104Z,43.70
2023-05-14T02:37:29.592Z,44.02
2023-05-14T02:40:14.640Z,44.11
2023-05-14T02:42:59.829Z,43.64
2023-05-14T02:45:45.085Z,43.47
2023-05-14T02:48:30.612Z,43.82
2023-05-14T02:51:16.585Z,43.87
2023-05-14T02:54:01.716Z,43.52
2023-05-14T02:56:47.189Z,44.03
2023-05-14T02:59:32.373Z,43.98
2023-05-14T03:02:18.199Z,44.04
2023-05-14T03:05:03.885Z,43.54
2023-05-14T03:07:51.318Z,44.06
2023-05-14T03:10:37.015Z,43.68
2023-05-14T03:13:22.000Z,44.11
2023-05-14T03:16:07.431Z,43.66
2023-05-14T03:18:53.102Z,43.96
2023-05-14T03:21:38.448Z,43.96
2023-05-14T03:24:23.647Z,43.70
2023-05-14T03:27:09.537Z,43.69
2023-05-14T03:29:54.824Z,43.69
2023-05-14T03:32:40.781Z,43.82
2023-05-14T03:35:25.861Z,44.07
2023-05-14T03:38:11.018Z,43.63
2023-05-14T03:40:55.832Z,44.08
2023-05-14T03:43:41.200Z,43.76
2023-05-14T03:46:26.197Z,43.68
2023-05-14T03:49:11.575Z,43.61
2023-05-14T03:51:59.274Z,43.66
2023-05-14T03:54:44.775Z,44.00
2023-05-14T03:57:30.314Z,44.02
2023-05-14T04:00:15.968Z,43.76
2023-05-14T04:03:04.225Z,43.98
2023-05-14T04:05:51.053Z,44.06
2023-05-14T04:08:36.300Z,44.08
2023-05-14T04:11:21.630Z,44.00
2023-05-14T04:14:07.715Z,44.09
2023-05-14T04:16:52.755Z,43.90
2023-05-14T04:19:37.982Z,44.12
2023-05-14T04:22:23.489Z,44.35
2023-05-14T04:25:08.765Z,44.14
2023-05-14T04:27:53.993Z,43.88
2023-05-14T04:30:39.039Z,44.12
2023-05-14T04:33:24.245Z,43.74
2023-05-14T04:36:09.447Z,44.18
2023-05-14T04:38:54.683Z,43.74
2023-05-14T04:41:39.635Z,43.59
2023-05-14T04:44:24.692Z,43.94
2023-05-14T04:47:09.695Z,44.23
2023-05-14T04:49:54.773Z,43.87
2023-05-14T04:52:39.753Z,44.25
2023-05-14T04:55:24.988Z,43.98
2023-05-14T04:58:10.248Z,44.21
2023-05-14T05:00:55.307Z,44.06
2023-05-14T05:03:40.691Z,43.77
2023-05-14T05:06:26.153Z,43.81
2023-05-14T05:09:11.762Z,43.71
2023-05-14T05:11:56.860Z,43.70
2023-05-14T05:14:42.071Z,43.89
2023-05-14T05:17:27.400Z,44.18
2023-05-14T05:20:13.320Z,44.06
2023-05-14T05:22:59.454Z,44.10
2023-05-14T05:25:44.589Z,44.57
2023-05-14T05:28:29.622Z,44.36
2023-05-14T05:31:15.212Z,44.09
2023-05-14T05:34:01.313Z,44.46
2023-05-14T05:36:46.165Z,44.08
2023-05-14T05:39:34.626Z,44.37
2023-05-14T05:42:19.603Z,43.86
2023-05-14T05:45:05.520Z,44.40
2023-05-14T05:47:50.870Z,44.44
2023-05-14T05:50:36.011Z,44.53
2023-05-14T05:53:02.725Z,44.56
2023-05-14T05:55:29.473Z,44.19
2023-05-14T05:57:56.198Z,44.71
2023-05-14T06:00:23.921Z,44.65
2023-05-14T06:02:52.296Z,44.60
2023-05-14T06:05:19.504Z,44.32
2023-05-14T06:07:46.201Z,44.54
2023-05-14T06:10:12.781Z,44.46
2023-05-14T06:12:39.480Z,44.72
2023-05-14T06:15:06.778Z,44.76
2023-05-14T06:17:33.467Z,44.84
2023-05-14T06:20:00.118Z,44.95
2023-05-14T06:22:26.726Z,44.51
2023-05-14T06:24:53.391Z,44.58
2023-05-14T06:27:19.936Z,44.52
2023-05-14T06:29:46.540Z,44.81
2023-05-14T06:32:15.581Z,44.54
2023-05-14T06:34:42.561Z,44.23
2023-05-14T06:37:10.144Z,44.26
2023-05-14T06:39:37.405Z,44.21
2023-05-14T06:42:04.346Z,44.44
2023-05-14T06:44:31.071Z,44.43
2023-05-14T06:46:57.623Z,44.87
2023-05-14T06:49:24.147Z,44.85
2023-05-14T06:51:50.746Z,44.45
2023-05-14T06:54:17.445Z,44.82
2023-05-14T06:56:44.003Z,44.87
2023-05-14T06:59:10.575Z,44.95
2023-05-14T07:01:37.319Z,44.36
2023-05-14T07:04:04.030Z,44.89
2023-05-14T07:06:30.810Z,45.02
2023-05-14T07:08:57.327Z,44.84
2023-05-14T07:11:23.888Z,44.93
2023-05-14T07:13:50.485Z,44.67
2023-05-14T07:16:18.348Z,44.59
2023-05-14T07:18:45.591Z,44.99
2023-05-14T07:21:12.497Z,44.73
2023-05-14T07:23:39.129Z,44.72
2023-05-14T07:26:07.966Z,44.58
2023-05-14T07:28:34.670Z,44.67
2023-05-14T07:31:01.472Z,44.84
2023-05-14T07:33:28.094Z,44.48
2023-05-14T07:35:54.757Z,44.62
2023-05-14T07:38:21.390Z,45.08
2023-05-14T07:40:47.971Z,44.48
2023-05-14T07:43:14.606Z,44.70
2023-05-14T07:45:41.382Z,44.75
2023-05-14T07:48:08.456Z,44.84
2023-05-14T07:50:35.205Z,44.81
2023-05-14T07:53:01.794Z,44.94
2023-05-14T07:55:28.638Z,44.72
2023-05-14T07:57:55.540Z,45.04
2023-05-14T08:00:22.519Z,45.03
2023-05-14T08:02:50.184Z,44.60
2023-05-14T08:05:17.740Z,44.80
2023-05-14T08:07:44.821Z,45.10
2023-05-14T08:10:11.511Z,44.97
2023-05-14T08:12:38.909Z,45.11
2023-05-14T08:15:07.641Z,45.11
2023-05-14T08:17:34.269Z,44.82
2023-05-14T08:20:01.391Z,45.10
2023-05-14T08:22:28.113Z,45.08
2023-05-14T08:24:54.961Z,44.74
2023-05-14T08:27:21.647Z,44.60
2023-05-14T08:29:48.293Z,44.60
2023-05-14T08:32:22.814Z,44.59
2023-05-14T08:34:50.888Z,45.03
2023-05-14T08:37:17.430Z,44.61
2023-05-14T08:39:44.296Z,44.32
2023-05-14T08:42:13.066Z,44.36
2023-05-14T08:44:47.062Z,44.61
2023-05-14T08:47:15.281Z,44.63
2023-05-14T08:49:43.301Z,44.74
2023-05-14T08:52:10.666Z,44.54
2023-05-14T08:54:37.525Z,44.58
2023-05-14T08:57:05.041Z,44.91
2023-05-14T08:59:31.710Z,44.41
2023-05-14T09:02:01.957Z,44.63
2023-05-14T09:04:29.597Z,44.48
2023-05-14T09:06:56.164Z,44.66
2023-05-14T09:09:23.225Z,44.61
2023-05-14T09:11:51.551Z,44.87
2023-05-14T09:14:18.880Z,44.90
2023-05-14T09:16:46.809Z,44.86
2023-05-14T09:19:15.589Z,44.68
2023-05-14T09:21:42.329Z,44.75
2023-05-14T09:24:09.116Z,45.13
2023-05-14T09:26:35.838Z,44.69
2023-05-14T09:29:02.738Z,44.92
2023-05-14T09:31:31.489Z,44.96
2023-05-14T09:33:58.691Z,45.20
2023-05-14T09:36:27.129Z,44.71
2023-05-14T09:38:56.807Z,44.83
2023-05-14T09:41:23.485Z,45.29
2023-05-14T09:43:53.786Z,44.94
2023-05-14T09:46:21.770Z,44.99
2023-05-14T09:48:48.329Z,45.02
2023-05-14T09:51:15.990Z,45.01
2023-05-14T09:53:44.220Z,44.61
2023-05-14T09:56:10.794Z,45.01
2023-05-14T09:58:37.399Z,44.72
2023-05-14T10:01:04.507Z,45.01
2023-05-14T10:03:31.654Z,45.27
2023-05-14T10:06:02.275Z,44.69
2023-05-14T10:08:34.045Z,44.86
2023-05-14T10:11:02.480Z,44.74
2023-05-14T10:13:31.694Z,44.77
2023-05-14T10:16:06.732Z,45.28
2023-05-14T10:18:34.718Z,45.26
2023-05-14T10:21:05.660Z,45.10
2023-05-14T10:23:32.668Z,44.80
2023-05-14T10:25:59.757Z,44.94
2023-05-14T10:28:26.771Z,44.96
2023-05-14T10:30:54.234Z,44.97
2023-05-14T10:33:20.998Z,45.10
2023-05-14T10:36:02.196Z,45.09
2023-05-14T10:38:30.148Z,45.12
2023-05-14T10:41:01.966Z,45.24
2023-05-14T10:43:30.757Z,45.16
2023-05-14T10:45:58.641Z,45.08
2023-05-14T10:48:25.906Z,45.03
2023-05-14T10:50:53.495Z,44.82
2023-05-14T10:53:20.318Z,44.71
2023-05-14T10:55:47.142Z,44.79
2023-05-14T10:58:14.917Z,45.26
2023-05-14T11:00:41.540Z,44.91
2023-05-14T11:03:08.348Z,45.33
2023-05-14T11:05:37.213Z,44.92
2023-05-14T11:08:07.787Z,45.41
2023-05-14T11:10:35.487Z,45.01
2023-05-14T11:13:02.398Z,45.08
2023-05-14T11:15:29.095Z,44.88
2023-05-14T11:17:56.038Z,45.39
2023-05-14T11:20:22.888Z,45.16
2023-05-14T11:22:51.735Z,44.99
2023-05-14T11:25:22.783Z,45.10
2023-05-14T11:27:50.075Z,45.22
2023-05-14T11:30:20.405Z,45.43
2023-05-14T11:32:48.254Z,45.55
2023-05-14T11:35:15.631Z,45.20
2023-05-14T11:37:43.099Z,45.03
2023-05-14T11:40:14.962Z,45.60
2023-05-14T11:42:41.804Z,45.12
2023-05-14T11:45:12.111Z,45.31
2023-05-14T11:47:39.166Z,45.94
2023-05-14T11:50:07.999Z,45.83
2023-05-14T11:52:41.875Z,45.39
2023-05-14T11:55:12.834Z,45.59
2023-05-14T11:57:41.018Z,45.65
2023-05-14T12:00:16.634Z,45.05
2023-05-14T12:02:43.297Z,44.81
2023-05-14T12:05:12.933Z,44.87
2023-05-14T12:07:39.583Z,45.11
2023-05-14T12:10:06.527Z,44.57
2023-05-14T12:12:39.251Z,44.99
2023-05-14T12:15:13.353Z,44.64
2023-05-14T12:17:40.147Z,44.71
2023-05-14T12:20:11.294Z,45.14
2023-05-14T12:22:38.554Z,44.80
2023-05-14T12:25:13.191Z,44.85
2023-05-14T12:27:39.951Z,44.99
2023-05-14T12:30:20.522Z,44.77
2023-05-14T12:32:52.669Z,45.21
2023-05-14T12:35:20.929Z,44.91
2023-05-14T12:37:47.443Z,44.78
2023-05-14T12:40:14.238Z,45.18
2023-05-14T12:42:40.975Z,44.94
2023-05-14T12:45:08.503Z,45.06
2023-05-14T12:47:36.166Z,44.73
2023-05-14T12:50:03.024Z,45.06
2023-05-14T12:54:59.205Z,44.43
2023-05-14T12:57:26.881Z,44.43
2023-05-14T12:59:54.058Z,44.88
2023-05-14T13:02:21.884Z,44.96
2023-05-14T13:04:48.504Z,44.60
2023-05-14T13:07:15.520Z,45.01
2023-05-14T13:09:42.176Z,45.18
2023-05-14T13:12:09.219Z,45.28
2023-05-14T13:14:36.387Z,45.32
2023-05-14T13:17:04.751Z,45.11
2023-05-14T13:19:31.496Z,45.62
2023-05-14T13:21:58.052Z,46.20
2023-05-14T13:24:25.157Z,45.86
2023-05-14T13:26:51.822Z,46.01
2023-05-14T13:29:18.423Z,46.52
2023-05-14T13:31:45.019Z,46.15
2023-05-14T13:34:12.972Z,46.77
2023-05-14T13:36:40.181Z,46.82
2023-05-14T13:39:07.085Z,46.61
2023-05-14T13:41:35.670Z,46.74
2023-05-14T13:44:02.283Z,46.33
2023-05-14T13:46:29.167Z,46.38
2023-05-14T13:48:55.872Z,46.51
2023-05-14T13:51:23.297Z,46.41
2023-05-14T13:53:51.092Z,46.70
2023-05-14T13:56:17.676Z,46.88
2023-05-14T13:58:44.269Z,46.71
2023-05-14T14:01:10.893Z,46.68
2023-05-14T14:03:37.498Z,47.59
2023-05-14T14:06:04.098Z,47.60
2023-05-14T14:08:31.149Z,47.59
2023-05-14T14:10:57.786Z,47.81
2023-05-14T14:13:24.596Z,47.28
2023-05-14T14:15:51.417Z,47.27
2023-05-14T14:18:18.105Z,46.95
2023-05-14T14:20:44.676Z,46.98
2023-05-14T14:23:11.223Z,47.39
2023-05-14T14:25:37.769Z,47.33
2023-05-14T14:28:04.502Z,47.02
2023-05-14T14:30:32.559Z,47.72
2023-05-14T14:33:01.110Z,47.62
2023-05-14T14:35:27.860Z,47.62
2023-05-14T14:37:55.629Z,47.29
2023-05-14T14:40:23.687Z,47.71
2023-05-14T14:42:50.571Z,47.72
2023-05-14T14:45:17.411Z,47.45
2023-05-14T14:47:45.812Z,48.33
2023-05-14T14:50:13.102Z,47.85
2023-05-14T14:52:45.486Z,46.90
2023-05-14T14:55:12.725Z,45.64
2023-05-14T14:57:39.379Z,44.73
2023-05-14T15:00:07.234Z,45.03
2023-05-14T15:02:34.260Z,44.72
2023-05-14T15:05:01.288Z,45.66
2023-05-14T15:07:28.004Z,45.40
2023-05-14T15:09:54.642Z,45.58
2023-05-14T15:12:21.252Z,45.88
2023-05-14T15:14:47.913Z,46.06
2023-05-14T15:17:14.480Z,45.64
2023-05-14T15:19:41.111Z,45.50
2023-05-14T15:22:07.736Z,46.09
2023-05-14T15:24:34.359Z,45.86
2023-05-14T15:27:01.010Z,46.81
2023-05-14T15:29:28.589Z,46.41
2023-05-14T15:31:55.406Z,46.14
2023-05-14T15:34:22.056Z,46.92
2023-05-14T15:36:48.694Z,46.30
2023-05-14T15:39:15.322Z,46.86
2023-05-14T15:41:41.972Z,46.93
2023-05-14T15:44:08.645Z,47.04
2023-05-14T15:46:35.671Z,47.22
2023-05-14T15:49:02.403Z,47.38
2023-05-14T15:51:29.102Z,47.39
2023-05-14T15:53:55.892Z,47.09
2023-05-14T15:56:22.833Z,47.53
2023-05-14T15:58:49.916Z,47.70
2023-05-14T16:01:16.710Z,47.86
2023-05-14T16:03:43.573Z,47.36
2023-05-14T16:06:11.542Z,47.17
2023-05-14T16:08:38.420Z,47.64
2023-05-14T16:11:06.109Z,47.75
2023-05-14T16:13:32.817Z,47.54
2023-05-14T16:15:59.669Z,47.93
2023-05-14T16:18:26.473Z,47.67
2023-05-14T16:20:53.607Z,47.56
2023-05-14T16:23:20.418Z,47.94
2023-05-14T16:25:46.972Z,47.68
2023-05-14T16:28:13.841Z,47.65
2023-05-14T16:30:40.460Z,48.56
2023-05-14T16:33:07.144Z,48.12
2023-05-14T16:35:33.845Z,47.74
2023-05-14T16:38:00.606Z,48.42
2023-05-14T16:40:27.171Z,48.52
2023-05-14T16:42:53.824Z,48.30
2023-05-14T16:45:20.591Z,47.83
2023-05-14T16:47:47.210Z,47.96
2023-05-14T16:50:13.870Z,48.50
2023-05-14T16:52:40.525Z,48.32
2023-05-14T16:55:07.447Z,48.62
2023-05-14T16:57:34.528Z,48.58
2023-05-14T17:00:01.321Z,48.71
2023-05-14T17:02:28.015Z,48.75
2023-05-14T17:04:55.254Z,49.03
2023-05-14T17:07:21.961Z,48.71
2023-05-14T17:09:48.633Z,49.17
2023-05-14T17:12:15.384Z,48.69
2023-05-14T17:14:41.931Z,48.47
2023-05-14T17:17:08.496Z,48.77
2023-05-14T17:19:35.134Z,48.46
2023-05-14T17:22:01.783Z,49.11
2023-05-14T17:24:28.361Z,49.12
2023-05-14T17:26:54.973Z,48.67
2023-05-14T17:29:21.559Z,49.15
2023-05-14T17:31:48.648Z,49.14
2023-05-14T17:34:15.291Z,49.11
2023-05-14T17:36:41.919Z,49.11
2023-05-14T17:39:09.035Z,49.16
2023-05-14T17:41:35.661Z,48.90
2023-05-14T17:44:02.192Z,48.84
2023-05-14T17:46:28.991Z,50.23
2023-05-14T17:48:55.622Z,51.43
2023-05-14T17:51:22.215Z,51.74
2023-05-14T17:53:48.767Z,51.88
2023-05-14T17:56:17.490Z,52.61
2023-05-14T17:58:44.745Z,52.64
2023-05-14T18:01:11.578Z,53.55
2023-05-14T18:03:38.636Z,53.07
2023-05-14T18:06:05.665Z,53.94
2023-05-14T18:08:32.224Z,53.78
2023-05-14T18:11:00.706Z,53.65
2023-05-14T18:13:27.404Z,53.68
2023-05-14T18:15:56.312Z,53.74
2023-05-14T18:18:24.003Z,53.66
2023-05-14T18:20:51.927Z,53.24
2023-05-14T18:23:18.675Z,53.58
2023-05-14T18:25:45.932Z,53.25
2023-05-14T18:28:12.794Z,53.13
2023-05-14T18:30:39.512Z,53.34
2023-05-14T18:33:06.281Z,52.97
2023-05-14T18:35:33.089Z,51.95
2023-05-14T18:37:59.688Z,51.59
2023-05-14T18:40:26.334Z,51.66
2023-05-14T18:42:52.886Z,51.77
2023-05-14T18:45:19.516Z,51.46
2023-05-14T18:47:46.218Z,51.63
2023-05-14T18:50:12.920Z,51.48
2023-05-14T18:52:39.535Z,51.49
2023-05-14T18:55:06.405Z,51.51
2023-05-14T18:57:33.182Z,51.37
2023-05-14T19:00:03.862Z,51.74
2023-05-14T19:02:31.128Z,51.34
2023-05-14T19:04:57.768Z,51.25
2023-05-14T19:07:24.488Z,51.12
2023-05-14T19:09:51.482Z,51.35
2023-05-14T19:12:18.099Z,51.40
2023-05-14T19:14:44.682Z,50.92
2023-05-14T19:17:11.462Z,51.06
2023-05-14T19:19:39.246Z,51.11
2023-05-14T19:22:06.281Z,50.95
2023-05-14T19:24:33.106Z,51.23
2023-05-14T19:26:59.735Z,51.18
2023-05-14T19:29:26.392Z,50.88
2023-05-14T19:31:53.065Z,50.46
2023-05-14T19:34:19.830Z,50.83
2023-05-14T19:36:46.446Z,50.24
2023-05-14T19:39:13.191Z,50.66
2023-05-14T19:41:39.799Z,51.44
2023-05-14T19:44:06.410Z,50.42
2023-05-14T19:46:33.049Z,50.47
2023-05-14T19:48:59.834Z,50.47
2023-05-14T19:51:26.438Z,50.52
2023-05-14T19:53:53.074Z,50.96
2023-05-14T19:56:19.648Z,50.63
2023-05-14T19:58:46.239Z,50.93
2023-05-14T20:01:13.238Z,50.07
2023-05-14T20:03:39.981Z,50.09
2023-05-14T20:06:07.680Z,50.33
2023-05-14T20:08:34.319Z,50.68
2023-05-14T20:11:00.941Z,51.30
2023-05-14T20:13:27.628Z,50.34
2023-05-14T20:15:55.166Z,51.00
2023-05-14T20:18:22.054Z,51.11
2023-05-14T20:20:48.977Z,50.65
2023-05-14T20:23:15.937Z,50.75
2023-05-14T20:25:43.049Z,50.61
2023-05-14T20:28:10.355Z,50.54
2023-05-14T20:30:37.100Z,50.48
2023-05-14T20:33:03.939Z,50.62
2023-05-14T20:35:31.056Z,50.45
2023-05-14T20:37:57.645Z,50.29
2023-05-14T20:40:24.639Z,50.18
2023-05-14T20:42:51.528Z,49.85
2023-05-14T20:45:18.156Z,50.12
2023-05-14T20:47:44.950Z,50.18
2023-05-14T20:50:11.843Z,50.22
2023-05-14T20:52:38.479Z,49.66
2023-05-14T20:55:05.596Z,49.91
2023-05-14T20:57:32.203Z,49.71
2023-05-14T20:59:58.814Z,49.53
2023-05-14T21:02:25.599Z,49.83
2023-05-14T21:04:52.571Z,49.88
2023-05-14T21:07:19.318Z,49.86
2023-05-14T21:09:50.790Z,49.41
2023-05-14T21:12:17.752Z,50.04
2023-05-14T21:14:44.370Z,49.72
2023-05-14T21:17:11.055Z,49.93
2023-05-14T21:19:37.647Z,49.84
2023-05-14T21:22:04.353Z,50.09
2023-05-14T21:24:30.921Z,49.84
2023-05-14T21:26:57.769Z,49.34
2023-05-14T21:29:24.439Z,49.28
2023-05-14T21:31:53.712Z,49.24
2023-05-14T21:34:20.380Z,49.45
2023-05-14T21:36:47.155Z,49.20
2023-05-14T21:39:13.812Z,48.94
2023-05-14T21:41:40.359Z,49.21
2023-05-14T21:44:06.999Z,49.25
2023-05-14T21:46:33.782Z,48.82
2023-05-14T21:49:00.483Z,49.21
2023-05-14T21:51:27.300Z,49.24
2023-05-14T21:53:53.841Z,49.25
2023-05-14T21:56:21.036Z,48.73
2023-05-14T21:58:47.667Z,48.58
2023-05-14T22:01:14.535Z,49.15
2023-05-14T22:03:41.820Z,49.32
2023-05-14T22:06:08.507Z,49.26
2023-05-14T22:08:35.152Z,49.22
2023-05-14T22:11:01.798Z,49.22
2023-05-14T22:13:28.617Z,49.06
2023-05-14T22:16:05.197Z,49.28
2023-05-14T22:18:36.562Z,49.57
2023-05-14T22:21:03.621Z,49.21
2023-05-14T22:23:30.314Z,49.37
2023-05-14T22:25:57.525Z,49.23
2023-05-14T22:28:24.143Z,48.96
2023-05-14T22:30:51.093Z,48.88
2023-05-14T22:33:19.246Z,49.31
2023-05-14T22:35:46.114Z,48.87
2023-05-14T22:38:13.760Z,48.95
2023-05-14T22:40:40.550Z,49.60
2023-05-14T22:43:07.156Z,49.18
2023-05-14T22:45:33.723Z,50.42
2023-05-14T22:48:00.540Z,50.23
2023-05-14T22:50:27.155Z,50.23
2023-05-14T22:52:53.798Z,49.62
2023-05-14T22:55:20.433Z,49.43
2023-05-14T22:57:47.075Z,49.33
2023-05-14T23:00:13.995Z,49.65
2023-05-14T23:02:40.748Z,48.90
2023-05-14T23:05:10.205Z,49.52
2023-05-14T23:07:36.936Z,49.08
2023-05-14T23:10:04.045Z,49.23
2023-05-14T23:12:30.685Z,50.28
2023-05-14T23:14:59.040Z,49.98
2023-05-14T23:17:25.958Z,49.93
2023-05-14T23:19:52.917Z,49.73
2023-05-14T23:22:20.299Z,50.07
2023-05-14T23:24:46.946Z,49.45
2023-05-14T23:27:13.567Z,50.32
2023-05-14T23:29:40.211Z,49.43
2023-05-14T23:32:07.118Z,49.56
2023-05-14T23:34:37.542Z,49.21
2023-05-14T23:37:04.288Z,49.50
2023-05-14T23:39:30.890Z,50.63
2023-05-14T23:41:57.518Z,50.68
2023-05-14T23:44:24.126Z,51.23
2023-05-14T23:46:50.834Z,50.93
2023-05-14T23:49:17.372Z,51.96
2023-05-14T23:51:44.054Z,51.75
2023-05-14T23:54:10.707Z,51.69
2023-05-14T23:56:37.364Z,51.90
2023-05-14T23:59:03.949Z,51.16
